This is the latest recevied weather packets stored in our database for station/object Allmendg2. If no packets are shown the sender has not sent any weather packets the latest 10 day(s).
| Time | Temp. | Humidity | Pressure | Rain* | Wind** | Luminosity | Snow |
|---|---|---|---|---|---|---|---|
| 1777582929 | 7.78° C | 41% | 1025.5 hPa | 0 mm | - | - | - |
| 1777581135 | 8.33° C | 40% | 1025.5 hPa | 0 mm | - | - | - |
| 1777579329 | 10° C | 37% | 1025.3 hPa | 0 mm | - | - | - |
| 1777577529 | 11.11° C | 35% | 1024.9 hPa | 0 mm | - | - | - |
| 1777575735 | 12.22° C | 33% | 1024.8 hPa | 0 mm | - | - | - |
| 1777573930 | 13.33° C | 31% | 1024.2 hPa | 0 mm | - | - | - |
| 1777572132 | 13.89° C | 30% | 1024.1 hPa | 0 mm | - | - | - |
| 1777570330 | 14.44° C | 28% | 1023.9 hPa | 0 mm | - | - | - |
| 1777568531 | 15° C | 28% | 1024.1 hPa | 0 mm | - | - | - |
| 1777566730 | 15.56° C | 29% | 1023.9 hPa | 0 mm | - | - | - |
| 1777564930 | 15.56° C | 28% | 1024.1 hPa | 0 mm | - | - | - |
| 1777563132 | 15.56° C | 27% | 1023.9 hPa | 0 mm | - | - | - |
| 1777559530 | 15.56° C | 26% | 1023.9 hPa | 0 mm | - | - | - |
| 1777557730 | 15° C | 28% | 1023.9 hPa | 0 mm | - | - | - |
| 1777555931 | 15° C | 28% | 1024 hPa | 0 mm | - | - | - |
| 1777554130 | 14.44° C | 30% | 1024.1 hPa | 0 mm | - | - | - |
| 1777552332 | 13.89° C | 31% | 1024.8 hPa | 0 mm | - | - | - |
| 1777550530 | 13.33° C | 33% | 1024.5 hPa | 0 mm | - | - | - |
| 1777548730 | 12.78° C | 34% | 1024.2 hPa | 0 mm | - | - | - |
| 1777546931 | 12.22° C | 36% | 1024.4 hPa | 0 mm | - | - | - |
| 1777545130 | 11.67° C | 38% | 1024.8 hPa | 0 mm | - | - | - |
| 1777543330 | 11.11° C | 39% | 1024.9 hPa | 0 mm | - | - | - |
| 1777541531 | 10.56° C | 40% | 1024.9 hPa | 0 mm | - | - | - |
| 1777539731 | 9.44° C | 41% | 1021.4 hPa | 0 mm | - | - | - |
| 1777537942 | 9.44° C | 41% | 1021.4 hPa | 0 mm | - | - | - |
* Rain since midnight (hover to see other rain measurements)
** Current wind speed in m/s (hover to see current wind gust speed)